sensor_id;sensor_type;location;lat;lon;timestamp;temperature;humidity
53802;DHT22;39709;53.334;6.534;2023-06-22T00:00:51;18.50;1.00
53802;DHT22;39709;53.334;6.534;2023-06-22T00:03:21;18.40;1.00
53802;DHT22;39709;53.334;6.534;2023-06-22T00:05:48;18.50;1.00
53802;DHT22;39709;53.334;6.534;2023-06-22T00:08:14;18.30;1.00
53802;DHT22;39709;53.334;6.534;2023-06-22T00:10:40;18.20;1.00
53802;DHT22;39709;53.334;6.534;2023-06-22T00:13:07;18.00;1.00
53802;DHT22;39709;53.334;6.534;2023-06-22T00:15:33;18.20;8.00
53802;DHT22;39709;53.334;6.534;2023-06-22T00:17:59;18.10;3.90
53802;DHT22;39709;53.334;6.534;2023-06-22T00:20:26;18.00;1.00
53802;DHT22;39709;53.334;6.534;2023-06-22T00:22:59;17.90;1.00
53802;DHT22;39709;53.334;6.534;2023-06-22T00:25:25;17.80;6.60
53802;DHT22;39709;53.334;6.534;2023-06-22T00:27:51;17.80;11.80
53802;DHT22;39709;53.334;6.534;2023-06-22T00:30:17;17.70;35.50
53802;DHT22;39709;53.334;6.534;2023-06-22T00:32:44;17.70;24.00
53802;DHT22;39709;53.334;6.534;2023-06-22T00:35:13;17.70;24.50
53802;DHT22;39709;53.334;6.534;2023-06-22T00:37:39;17.60;15.80
53802;DHT22;39709;53.334;6.534;2023-06-22T00:40:09;17.60;21.70
53802;DHT22;39709;53.334;6.534;2023-06-22T00:42:37;17.90;34.30
53802;DHT22;39709;53.334;6.534;2023-06-22T00:45:05;17.60;48.30
53802;DHT22;39709;53.334;6.534;2023-06-22T00:47:30;17.50;39.80
53802;DHT22;39709;53.334;6.534;2023-06-22T00:49:57;17.70;16.50
53802;DHT22;39709;53.334;6.534;2023-06-22T00:52:23;17.50;7.20
53802;DHT22;39709;53.334;6.534;2023-06-22T00:54:52;17.50;22.10
53802;DHT22;39709;53.334;6.534;2023-06-22T00:57:19;17.80;26.20
53802;DHT22;39709;53.334;6.534;2023-06-22T00:59:47;17.70;21.60
53802;DHT22;39709;53.334;6.534;2023-06-22T01:02:13;17.90;23.80
53802;DHT22;39709;53.334;6.534;2023-06-22T01:04:39;17.60;26.90
53802;DHT22;39709;53.334;6.534;2023-06-22T01:07:31;17.30;7.00
53802;DHT22;39709;53.334;6.534;2023-06-22T01:12:36;17.00;39.10
53802;DHT22;39709;53.334;6.534;2023-06-22T01:15:18;17.10;50.80
53802;DHT22;39709;53.334;6.534;2023-06-22T01:17:48;17.10;42.30
53802;DHT22;39709;53.334;6.534;2023-06-22T01:20:15;17.10;23.40
53802;DHT22;39709;53.334;6.534;2023-06-22T01:31:08;17.00;99.90
53802;DHT22;39709;53.334;6.534;2023-06-22T01:33:37;16.80;99.90
53802;DHT22;39709;53.334;6.534;2023-06-22T01:36:05;17.00;99.90
53802;DHT22;39709;53.334;6.534;2023-06-22T01:38:32;16.80;99.90
53802;DHT22;39709;53.334;6.534;2023-06-22T01:40:59;16.90;99.90
53802;DHT22;39709;53.334;6.534;2023-06-22T01:43:27;17.10;99.90
53802;DHT22;39709;53.334;6.534;2023-06-22T01:46:00;16.70;99.90
53802;DHT22;39709;53.334;6.534;2023-06-22T01:48:26;16.90;99.90
53802;DHT22;39709;53.334;6.534;2023-06-22T01:50:52;17.10;99.90
53802;DHT22;39709;53.334;6.534;2023-06-22T01:53:21;16.90;99.90
53802;DHT22;39709;53.334;6.534;2023-06-22T01:55:47;16.90;99.90
53802;DHT22;39709;53.334;6.534;2023-06-22T01:58:13;17.00;99.90
53802;DHT22;39709;53.334;6.534;2023-06-22T02:00:40;16.80;99.90
53802;DHT22;39709;53.334;6.534;2023-06-22T02:03:11;16.60;99.90
53802;DHT22;39709;53.334;6.534;2023-06-22T02:05:56;16.60;99.90
53802;DHT22;39709;53.334;6.534;2023-06-22T02:08:37;16.60;99.90
53802;DHT22;39709;53.334;6.534;2023-06-22T02:11:03;16.70;99.90
53802;DHT22;39709;53.334;6.534;2023-06-22T02:13:31;16.80;99.90
53802;DHT22;39709;53.334;6.534;2023-06-22T02:15:57;16.70;99.90
53802;DHT22;39709;53.334;6.534;2023-06-22T02:18:23;16.70;99.90
53802;DHT22;39709;53.334;6.534;2023-06-22T02:20:49;16.80;99.90
53802;DHT22;39709;53.334;6.534;2023-06-22T02:23:14;16.80;99.90
53802;DHT22;39709;53.334;6.534;2023-06-22T02:25:40;17.00;99.90
53802;DHT22;39709;53.334;6.534;2023-06-22T02:28:09;17.00;99.90
53802;DHT22;39709;53.334;6.534;2023-06-22T02:30:35;16.80;99.90
53802;DHT22;39709;53.334;6.534;2023-06-22T02:33:00;16.60;99.90
53802;DHT22;39709;53.334;6.534;2023-06-22T02:35:27;17.00;99.90
53802;DHT22;39709;53.334;6.534;2023-06-22T02:37:59;16.70;99.90
53802;DHT22;39709;53.334;6.534;2023-06-22T02:40:26;16.90;99.90
53802;DHT22;39709;53.334;6.534;2023-06-22T02:42:52;17.00;99.90
53802;DHT22;39709;53.334;6.534;2023-06-22T02:45:17;17.00;99.90
53802;DHT22;39709;53.334;6.534;2023-06-22T02:47:43;17.00;99.90
53802;DHT22;39709;53.334;6.534;2023-06-22T02:50:09;16.80;99.90
53802;DHT22;39709;53.334;6.534;2023-06-22T02:52:36;16.80;99.90
53802;DHT22;39709;53.334;6.534;2023-06-22T02:55:01;16.80;99.90
53802;DHT22;39709;53.334;6.534;2023-06-22T02:57:27;16.90;99.90
53802;DHT22;39709;53.334;6.534;2023-06-22T02:59:53;17.10;99.90
53802;DHT22;39709;53.334;6.534;2023-06-22T03:02:18;16.80;99.90
53802;DHT22;39709;53.334;6.534;2023-06-22T03:04:47;16.90;99.90
53802;DHT22;39709;53.334;6.534;2023-06-22T03:07:14;17.00;99.90
53802;DHT22;39709;53.334;6.534;2023-06-22T03:09:40;16.70;99.90
53802;DHT22;39709;53.334;6.534;2023-06-22T03:12:08;17.10;99.90
53802;DHT22;39709;53.334;6.534;2023-06-22T03:14:34;16.70;99.90
53802;DHT22;39709;53.334;6.534;2023-06-22T03:17:00;17.00;99.90
53802;DHT22;39709;53.334;6.534;2023-06-22T03:19:29;17.00;99.90
53802;DHT22;39709;53.334;6.534;2023-06-22T03:21:57;16.60;99.90
53802;DHT22;39709;53.334;6.534;2023-06-22T03:24:23;16.90;99.90
53802;DHT22;39709;53.334;6.534;2023-06-22T03:26:49;16.90;99.90
53802;DHT22;39709;53.334;6.534;2023-06-22T03:29:14;16.90;99.90
53802;DHT22;39709;53.334;6.534;2023-06-22T03:31:41;16.80;99.90
53802;DHT22;39709;53.334;6.534;2023-06-22T03:34:06;16.70;99.90
53802;DHT22;39709;53.334;6.534;2023-06-22T03:36:32;16.90;99.90
53802;DHT22;39709;53.334;6.534;2023-06-22T03:38:58;16.90;99.90
53802;DHT22;39709;53.334;6.534;2023-06-22T03:41:24;16.80;99.90
53802;DHT22;39709;53.334;6.534;2023-06-22T03:43:49;16.80;99.90
53802;DHT22;39709;53.334;6.534;2023-06-22T03:46:15;16.90;99.90
53802;DHT22;39709;53.334;6.534;2023-06-22T03:48:41;16.80;99.90
53802;DHT22;39709;53.334;6.534;2023-06-22T03:51:06;16.90;99.90
53802;DHT22;39709;53.334;6.534;2023-06-22T03:53:32;16.80;99.90
53802;DHT22;39709;53.334;6.534;2023-06-22T03:55:58;16.70;99.90
53802;DHT22;39709;53.334;6.534;2023-06-22T03:58:23;16.90;99.90
53802;DHT22;39709;53.334;6.534;2023-06-22T04:00:50;16.90;99.90
53802;DHT22;39709;53.334;6.534;2023-06-22T04:03:17;16.70;99.90
53802;DHT22;39709;53.334;6.534;2023-06-22T04:05:46;17.00;99.90
53802;DHT22;39709;53.334;6.534;2023-06-22T04:08:13;17.00;99.90
53802;DHT22;39709;53.334;6.534;2023-06-22T04:10:39;17.00;99.90
53802;DHT22;39709;53.334;6.534;2023-06-22T04:13:04;17.10;99.90
53802;DHT22;39709;53.334;6.534;2023-06-22T04:15:30;17.00;99.90
53802;DHT22;39709;53.334;6.534;2023-06-22T04:17:56;16.90;99.90
53802;DHT22;39709;53.334;6.534;2023-06-22T04:20:22;17.20;99.90
53802;DHT22;39709;53.334;6.534;2023-06-22T04:22:52;16.90;99.90
53802;DHT22;39709;53.334;6.534;2023-06-22T04:25:17;17.00;99.90
53802;DHT22;39709;53.334;6.534;2023-06-22T04:27:43;17.10;99.90
53802;DHT22;39709;53.334;6.534;2023-06-22T04:30:10;17.00;99.90
53802;DHT22;39709;53.334;6.534;2023-06-22T04:32:36;17.00;99.90
53802;DHT22;39709;53.334;6.534;2023-06-22T04:35:03;16.90;99.90
53802;DHT22;39709;53.334;6.534;2023-06-22T04:37:30;17.10;99.90
53802;DHT22;39709;53.334;6.534;2023-06-22T04:39:56;17.00;99.90
53802;DHT22;39709;53.334;6.534;2023-06-22T04:42:21;17.00;99.90
53802;DHT22;39709;53.334;6.534;2023-06-22T04:44:47;17.50;99.90
53802;DHT22;39709;53.334;6.534;2023-06-22T04:47:13;17.20;99.90
53802;DHT22;39709;53.334;6.534;2023-06-22T04:49:38;17.20;99.90
53802;DHT22;39709;53.334;6.534;2023-06-22T04:52:10;17.20;99.90
53802;DHT22;39709;53.334;6.534;2023-06-22T04:54:38;17.50;99.90
53802;DHT22;39709;53.334;6.534;2023-06-22T04:57:06;17.90;99.90
53802;DHT22;39709;53.334;6.534;2023-06-22T04:59:36;17.90;99.90
53802;DHT22;39709;53.334;6.534;2023-06-22T05:02:02;17.90;99.90
53802;DHT22;39709;53.334;6.534;2023-06-22T05:04:29;17.80;99.90
53802;DHT22;39709;53.334;6.534;2023-06-22T05:06:59;18.00;99.90
53802;DHT22;39709;53.334;6.534;2023-06-22T05:09:29;18.20;99.90
53802;DHT22;39709;53.334;6.534;2023-06-22T05:11:55;18.40;99.90
53802;DHT22;39709;53.334;6.534;2023-06-22T05:14:22;18.50;99.90
53802;DHT22;39709;53.334;6.534;2023-06-22T05:16:48;18.50;99.90
53802;DHT22;39709;53.334;6.534;2023-06-22T05:19:15;18.70;99.90
53802;DHT22;39709;53.334;6.534;2023-06-22T05:21:41;18.80;77.10
53802;DHT22;39709;53.334;6.534;2023-06-22T05:24:06;18.80;72.20
53802;DHT22;39709;53.334;6.534;2023-06-22T05:26:33;19.10;62.00
53802;DHT22;39709;53.334;6.534;2023-06-22T05:29:00;19.20;31.30
53802;DHT22;39709;53.334;6.534;2023-06-22T05:31:26;19.20;29.50
53802;DHT22;39709;53.334;6.534;2023-06-22T05:33:54;19.30;14.80
53802;DHT22;39709;53.334;6.534;2023-06-22T05:36:20;19.50;2.80
53802;DHT22;39709;53.334;6.534;2023-06-22T05:38:47;19.60;1.00
53802;DHT22;39709;53.334;6.534;2023-06-22T05:41:13;19.60;1.00
53802;DHT22;39709;53.334;6.534;2023-06-22T05:43:39;19.70;52.20
53802;DHT22;39709;53.334;6.534;2023-06-22T05:46:05;19.70;35.30
53802;DHT22;39709;53.334;6.534;2023-06-22T05:48:31;19.60;73.90
53802;DHT22;39709;53.334;6.534;2023-06-22T05:50:57;19.70;99.90
53802;DHT22;39709;53.334;6.534;2023-06-22T05:53:23;19.60;99.90
53802;DHT22;39709;53.334;6.534;2023-06-22T05:55:49;19.70;73.30
53802;DHT22;39709;53.334;6.534;2023-06-22T05:58:15;20.10;1.00
53802;DHT22;39709;53.334;6.534;2023-06-22T06:00:41;20.10;1.00
53802;DHT22;39709;53.334;6.534;2023-06-22T06:03:08;20.40;1.00
53802;DHT22;39709;53.334;6.534;2023-06-22T06:05:35;20.30;1.00
53802;DHT22;39709;53.334;6.534;2023-06-22T06:08:01;20.40;1.00
53802;DHT22;39709;53.334;6.534;2023-06-22T06:10:28;20.50;1.00
53802;DHT22;39709;53.334;6.534;2023-06-22T06:12:55;20.50;1.00
53802;DHT22;39709;53.334;6.534;2023-06-22T06:15:21;20.30;98.80
53802;DHT22;39709;53.334;6.534;2023-06-22T06:17:51;20.20;99.90
53802;DHT22;39709;53.334;6.534;2023-06-22T06:20:22;20.20;25.50
53802;DHT22;39709;53.334;6.534;2023-06-22T06:22:48;20.60;1.00
53802;DHT22;39709;53.334;6.534;2023-06-22T06:25:15;20.80;1.00
53802;DHT22;39709;53.334;6.534;2023-06-22T06:27:44;20.80;1.00
53802;DHT22;39709;53.334;6.534;2023-06-22T06:30:11;20.90;1.00
53802;DHT22;39709;53.334;6.534;2023-06-22T06:32:37;21.10;1.00
53802;DHT22;39709;53.334;6.534;2023-06-22T06:35:05;21.20;1.00
53802;DHT22;39709;53.334;6.534;2023-06-22T06:37:32;21.30;1.00
53802;DHT22;39709;53.334;6.534;2023-06-22T06:39:58;21.20;1.00
53802;DHT22;39709;53.334;6.534;2023-06-22T06:42:24;21.20;1.00
53802;DHT22;39709;53.334;6.534;2023-06-22T06:44:50;21.40;1.00
53802;DHT22;39709;53.334;6.534;2023-06-22T06:47:15;21.50;1.00
53802;DHT22;39709;53.334;6.534;2023-06-22T06:49:42;21.70;1.00
53802;DHT22;39709;53.334;6.534;2023-06-22T06:52:08;21.70;1.00
53802;DHT22;39709;53.334;6.534;2023-06-22T06:54:34;21.90;1.00
53802;DHT22;39709;53.334;6.534;2023-06-22T06:56:59;21.90;1.00
53802;DHT22;39709;53.334;6.534;2023-06-22T06:59:25;21.90;1.00
53802;DHT22;39709;53.334;6.534;2023-06-22T07:01:51;21.90;1.00
53802;DHT22;39709;53.334;6.534;2023-06-22T07:04:16;22.10;1.00
53802;DHT22;39709;53.334;6.534;2023-06-22T07:06:42;22.20;1.00
53802;DHT22;39709;53.334;6.534;2023-06-22T07:09:08;22.30;1.00
53802;DHT22;39709;53.334;6.534;2023-06-22T07:11:34;22.50;1.00
53802;DHT22;39709;53.334;6.534;2023-06-22T07:14:01;22.50;1.00
53802;DHT22;39709;53.334;6.534;2023-06-22T07:16:26;22.50;1.00
53802;DHT22;39709;53.334;6.534;2023-06-22T07:18:53;22.40;1.00
53802;DHT22;39709;53.334;6.534;2023-06-22T07:21:19;22.60;1.00
53802;DHT22;39709;53.334;6.534;2023-06-22T07:23:45;22.40;1.00
53802;DHT22;39709;53.334;6.534;2023-06-22T07:26:10;22.60;1.00
53802;DHT22;39709;53.334;6.534;2023-06-22T07:28:38;22.50;1.00
53802;DHT22;39709;53.334;6.534;2023-06-22T07:31:06;22.60;1.00
53802;DHT22;39709;53.334;6.534;2023-06-22T07:33:32;22.60;1.00
53802;DHT22;39709;53.334;6.534;2023-06-22T07:35:57;22.50;1.00
53802;DHT22;39709;53.334;6.534;2023-06-22T07:38:23;22.60;1.00
53802;DHT22;39709;53.334;6.534;2023-06-22T07:40:49;22.60;1.00
53802;DHT22;39709;53.334;6.534;2023-06-22T07:43:16;22.80;1.00
53802;DHT22;39709;53.334;6.534;2023-06-22T07:45:50;22.90;1.00
53802;DHT22;39709;53.334;6.534;2023-06-22T07:48:20;22.80;1.00
53802;DHT22;39709;53.334;6.534;2023-06-22T07:50:46;23.00;1.00
53802;DHT22;39709;53.334;6.534;2023-06-22T07:53:12;23.40;1.00
53802;DHT22;39709;53.334;6.534;2023-06-22T07:55:38;23.50;1.00
53802;DHT22;39709;53.334;6.534;2023-06-22T07:58:03;23.50;1.00
53802;DHT22;39709;53.334;6.534;2023-06-22T08:00:29;23.70;1.00
53802;DHT22;39709;53.334;6.534;2023-06-22T08:02:55;23.60;1.00
53802;DHT22;39709;53.334;6.534;2023-06-22T08:05:20;23.70;99.90
53802;DHT22;39709;53.334;6.534;2023-06-22T08:07:46;23.90;99.90
53802;DHT22;39709;53.334;6.534;2023-06-22T08:10:12;23.90;99.90
53802;DHT22;39709;53.334;6.534;2023-06-22T08:12:39;24.00;99.90
53802;DHT22;39709;53.334;6.534;2023-06-22T08:15:05;24.20;99.90
53802;DHT22;39709;53.334;6.534;2023-06-22T08:17:31;24.20;99.90
53802;DHT22;39709;53.334;6.534;2023-06-22T08:19:57;24.30;99.90
53802;DHT22;39709;53.334;6.534;2023-06-22T08:22:22;24.20;99.90
53802;DHT22;39709;53.334;6.534;2023-06-22T08:24:48;24.40;99.90
53802;DHT22;39709;53.334;6.534;2023-06-22T08:27:14;24.50;99.90
53802;DHT22;39709;53.334;6.534;2023-06-22T08:29:44;24.60;99.90
53802;DHT22;39709;53.334;6.534;2023-06-22T08:32:11;24.60;99.90
53802;DHT22;39709;53.334;6.534;2023-06-22T08:34:37;24.60;99.90
53802;DHT22;39709;53.334;6.534;2023-06-22T08:37:08;24.70;99.90
53802;DHT22;39709;53.334;6.534;2023-06-22T08:39:34;24.60;99.90
53802;DHT22;39709;53.334;6.534;2023-06-22T08:42:00;24.90;99.90
53802;DHT22;39709;53.334;6.534;2023-06-22T08:44:26;24.80;99.90
53802;DHT22;39709;53.334;6.534;2023-06-22T08:46:51;25.50;99.90
53802;DHT22;39709;53.334;6.534;2023-06-22T08:49:17;24.80;99.90
53802;DHT22;39709;53.334;6.534;2023-06-22T08:51:43;24.90;99.90
53802;DHT22;39709;53.334;6.534;2023-06-22T08:54:11;24.90;99.90
53802;DHT22;39709;53.334;6.534;2023-06-22T08:56:37;24.80;99.90
53802;DHT22;39709;53.334;6.534;2023-06-22T08:59:02;25.10;99.90
53802;DHT22;39709;53.334;6.534;2023-06-22T09:01:28;24.40;99.90
53802;DHT22;39709;53.334;6.534;2023-06-22T09:03:54;24.80;99.90
53802;DHT22;39709;53.334;6.534;2023-06-22T09:06:23;24.90;99.90
53802;DHT22;39709;53.334;6.534;2023-06-22T09:08:50;25.00;99.90
53802;DHT22;39709;53.334;6.534;2023-06-22T09:11:16;24.80;99.90
53802;DHT22;39709;53.334;6.534;2023-06-22T09:13:42;24.90;99.90
53802;DHT22;39709;53.334;6.534;2023-06-22T09:16:08;25.00;99.90
53802;DHT22;39709;53.334;6.534;2023-06-22T09:18:34;25.10;99.90
53802;DHT22;39709;53.334;6.534;2023-06-22T09:21:00;25.10;99.90
53802;DHT22;39709;53.334;6.534;2023-06-22T09:23:26;25.30;99.90
53802;DHT22;39709;53.334;6.534;2023-06-22T09:25:51;25.40;99.90
53802;DHT22;39709;53.334;6.534;2023-06-22T09:28:17;25.70;99.90
53802;DHT22;39709;53.334;6.534;2023-06-22T09:30:43;25.90;99.90
53802;DHT22;39709;53.334;6.534;2023-06-22T09:33:10;25.70;99.90
53802;DHT22;39709;53.334;6.534;2023-06-22T09:35:35;25.50;99.90
53802;DHT22;39709;53.334;6.534;2023-06-22T09:38:01;25.30;99.90
53802;DHT22;39709;53.334;6.534;2023-06-22T09:40:27;25.60;99.90
53802;DHT22;39709;53.334;6.534;2023-06-22T09:42:52;25.50;99.90
53802;DHT22;39709;53.334;6.534;2023-06-22T09:45:18;25.60;99.90
53802;DHT22;39709;53.334;6.534;2023-06-22T09:47:43;25.70;99.90
53802;DHT22;39709;53.334;6.534;2023-06-22T09:50:10;26.10;99.90
53802;DHT22;39709;53.334;6.534;2023-06-22T09:52:36;26.20;99.90
53802;DHT22;39709;53.334;6.534;2023-06-22T09:55:02;25.90;99.90
53802;DHT22;39709;53.334;6.534;2023-06-22T09:57:29;26.00;99.90
53802;DHT22;39709;53.334;6.534;2023-06-22T09:59:55;25.30;99.90
53802;DHT22;39709;53.334;6.534;2023-06-22T10:02:21;26.00;99.90
53802;DHT22;39709;53.334;6.534;2023-06-22T10:04:48;26.10;99.90
53802;DHT22;39709;53.334;6.534;2023-06-22T10:07:13;26.40;99.90
53802;DHT22;39709;53.334;6.534;2023-06-22T10:09:39;26.30;99.90
53802;DHT22;39709;53.334;6.534;2023-06-22T10:12:05;26.30;99.90
53802;DHT22;39709;53.334;6.534;2023-06-22T10:14:31;26.40;99.90
53802;DHT22;39709;53.334;6.534;2023-06-22T10:16:57;26.20;99.90
53802;DHT22;39709;53.334;6.534;2023-06-22T10:19:22;25.90;99.90
53802;DHT22;39709;53.334;6.534;2023-06-22T10:21:48;25.80;99.90
53802;DHT22;39709;53.334;6.534;2023-06-22T10:24:14;26.20;99.90
53802;DHT22;39709;53.334;6.534;2023-06-22T10:26:39;26.60;99.90
53802;DHT22;39709;53.334;6.534;2023-06-22T10:29:05;26.30;99.90
53802;DHT22;39709;53.334;6.534;2023-06-22T10:31:31;26.50;99.90
53802;DHT22;39709;53.334;6.534;2023-06-22T10:33:56;26.20;99.90
53802;DHT22;39709;53.334;6.534;2023-06-22T10:36:22;26.20;99.90
53802;DHT22;39709;53.334;6.534;2023-06-22T10:38:48;26.30;99.90
53802;DHT22;39709;53.334;6.534;2023-06-22T10:41:15;26.50;99.90
53802;DHT22;39709;53.334;6.534;2023-06-22T10:43:41;26.40;99.90
53802;DHT22;39709;53.334;6.534;2023-06-22T10:46:07;26.80;99.90
53802;DHT22;39709;53.334;6.534;2023-06-22T10:48:33;26.60;99.90
53802;DHT22;39709;53.334;6.534;2023-06-22T10:50:58;26.20;99.90
53802;DHT22;39709;53.334;6.534;2023-06-22T10:53:24;26.40;99.90
53802;DHT22;39709;53.334;6.534;2023-06-22T10:55:50;26.10;99.90
53802;DHT22;39709;53.334;6.534;2023-06-22T10:58:18;26.60;99.90
53802;DHT22;39709;53.334;6.534;2023-06-22T11:00:44;26.20;99.90
53802;DHT22;39709;53.334;6.534;2023-06-22T11:03:10;26.40;99.90
53802;DHT22;39709;53.334;6.534;2023-06-22T11:05:35;25.60;99.90
53802;DHT22;39709;53.334;6.534;2023-06-22T11:08:01;26.00;99.90
53802;DHT22;39709;53.334;6.534;2023-06-22T11:10:27;25.70;99.90
53802;DHT22;39709;53.334;6.534;2023-06-22T11:12:52;26.30;99.90
53802;DHT22;39709;53.334;6.534;2023-06-22T11:15:18;26.20;99.90
53802;DHT22;39709;53.334;6.534;2023-06-22T11:17:44;26.00;99.90
53802;DHT22;39709;53.334;6.534;2023-06-22T11:20:11;25.80;99.90
53802;DHT22;39709;53.334;6.534;2023-06-22T11:22:40;26.20;99.90
53802;DHT22;39709;53.334;6.534;2023-06-22T11:25:07;26.10;99.90
53802;DHT22;39709;53.334;6.534;2023-06-22T11:27:33;26.00;99.90
53802;DHT22;39709;53.334;6.534;2023-06-22T11:29:59;25.70;99.90
53802;DHT22;39709;53.334;6.534;2023-06-22T11:32:24;25.40;99.90
53802;DHT22;39709;53.334;6.534;2023-06-22T11:34:50;25.20;99.90
53802;DHT22;39709;53.334;6.534;2023-06-22T11:37:16;25.50;99.90
53802;DHT22;39709;53.334;6.534;2023-06-22T11:39:42;25.20;99.90
53802;DHT22;39709;53.334;6.534;2023-06-22T11:42:08;25.20;99.90
53802;DHT22;39709;53.334;6.534;2023-06-22T11:44:34;25.40;99.90
53802;DHT22;39709;53.334;6.534;2023-06-22T11:47:00;25.80;99.90
53802;DHT22;39709;53.334;6.534;2023-06-22T11:49:29;25.80;99.90
53802;DHT22;39709;53.334;6.534;2023-06-22T11:51:55;26.20;99.90
53802;DHT22;39709;53.334;6.534;2023-06-22T11:54:20;25.80;99.90
53802;DHT22;39709;53.334;6.534;2023-06-22T11:56:46;25.60;99.90
53802;DHT22;39709;53.334;6.534;2023-06-22T11:59:12;25.70;99.90
53802;DHT22;39709;53.334;6.534;2023-06-22T12:01:37;25.70;99.90
53802;DHT22;39709;53.334;6.534;2023-06-22T12:04:03;25.90;99.90
53802;DHT22;39709;53.334;6.534;2023-06-22T12:06:32;25.60;99.90
53802;DHT22;39709;53.334;6.534;2023-06-22T12:08:58;26.10;99.90
53802;DHT22;39709;53.334;6.534;2023-06-22T12:11:23;26.30;99.90
53802;DHT22;39709;53.334;6.534;2023-06-22T12:13:49;26.10;99.90
53802;DHT22;39709;53.334;6.534;2023-06-22T12:16:15;25.70;99.90
53802;DHT22;39709;53.334;6.534;2023-06-22T12:18:40;25.70;99.90
53802;DHT22;39709;53.334;6.534;2023-06-22T12:21:07;25.40;99.90
53802;DHT22;39709;53.334;6.534;2023-06-22T12:23:32;25.90;99.90
53802;DHT22;39709;53.334;6.534;2023-06-22T12:25:58;25.40;99.90
53802;DHT22;39709;53.334;6.534;2023-06-22T12:28:25;25.30;99.90
53802;DHT22;39709;53.334;6.534;2023-06-22T12:30:51;25.20;99.90
53802;DHT22;39709;53.334;6.534;2023-06-22T12:33:17;25.20;99.90
53802;DHT22;39709;53.334;6.534;2023-06-22T12:35:43;25.70;99.90
53802;DHT22;39709;53.334;6.534;2023-06-22T12:38:10;25.30;99.90
53802;DHT22;39709;53.334;6.534;2023-06-22T12:40:36;25.60;99.90
53802;DHT22;39709;53.334;6.534;2023-06-22T12:43:02;26.00;99.90
53802;DHT22;39709;53.334;6.534;2023-06-22T12:45:28;25.90;99.90
53802;DHT22;39709;53.334;6.534;2023-06-22T12:47:57;25.20;99.90
53802;DHT22;39709;53.334;6.534;2023-06-22T12:50:23;25.30;99.90
53802;DHT22;39709;53.334;6.534;2023-06-22T12:52:48;25.20;99.90
53802;DHT22;39709;53.334;6.534;2023-06-22T12:55:14;25.00;99.90
53802;DHT22;39709;53.334;6.534;2023-06-22T12:57:40;25.20;99.90
53802;DHT22;39709;53.334;6.534;2023-06-22T13:00:06;25.30;99.90
53802;DHT22;39709;53.334;6.534;2023-06-22T13:02:33;25.60;99.90
53802;DHT22;39709;53.334;6.534;2023-06-22T13:04:59;25.30;99.90
53802;DHT22;39709;53.334;6.534;2023-06-22T13:07:25;25.50;99.90
53802;DHT22;39709;53.334;6.534;2023-06-22T13:09:51;25.50;99.90
53802;DHT22;39709;53.334;6.534;2023-06-22T13:12:17;25.30;99.90
53802;DHT22;39709;53.334;6.534;2023-06-22T13:14:43;25.50;99.90
53802;DHT22;39709;53.334;6.534;2023-06-22T13:17:09;25.80;99.90
53802;DHT22;39709;53.334;6.534;2023-06-22T13:19:35;25.50;99.90
53802;DHT22;39709;53.334;6.534;2023-06-22T13:22:00;25.30;99.90
53802;DHT22;39709;53.334;6.534;2023-06-22T13:24:28;25.10;99.90
53802;DHT22;39709;53.334;6.534;2023-06-22T13:26:53;25.20;99.90
53802;DHT22;39709;53.334;6.534;2023-06-22T13:29:20;24.90;99.90
53802;DHT22;39709;53.334;6.534;2023-06-22T13:31:46;25.30;99.90
53802;DHT22;39709;53.334;6.534;2023-06-22T13:34:11;25.60;99.90
53802;DHT22;39709;53.334;6.534;2023-06-22T13:36:37;25.10;99.90
53802;DHT22;39709;53.334;6.534;2023-06-22T13:39:03;25.20;99.90
53802;DHT22;39709;53.334;6.534;2023-06-22T13:41:29;25.60;99.90
53802;DHT22;39709;53.334;6.534;2023-06-22T13:43:55;25.50;99.90
53802;DHT22;39709;53.334;6.534;2023-06-22T13:46:20;25.30;99.90
53802;DHT22;39709;53.334;6.534;2023-06-22T13:48:46;25.20;99.90
53802;DHT22;39709;53.334;6.534;2023-06-22T13:51:12;24.60;99.90
53802;DHT22;39709;53.334;6.534;2023-06-22T13:53:37;25.00;99.90
53802;DHT22;39709;53.334;6.534;2023-06-22T13:56:03;25.10;99.90
53802;DHT22;39709;53.334;6.534;2023-06-22T13:58:29;25.10;99.90
53802;DHT22;39709;53.334;6.534;2023-06-22T14:00:54;25.20;99.90
53802;DHT22;39709;53.334;6.534;2023-06-22T14:03:20;25.10;99.90
53802;DHT22;39709;53.334;6.534;2023-06-22T14:05:46;24.60;99.90
53802;DHT22;39709;53.334;6.534;2023-06-22T14:08:12;24.60;99.90
53802;DHT22;39709;53.334;6.534;2023-06-22T14:10:38;24.70;99.90
53802;DHT22;39709;53.334;6.534;2023-06-22T14:13:03;24.70;99.90
53802;DHT22;39709;53.334;6.534;2023-06-22T14:15:31;24.70;99.90
53802;DHT22;39709;53.334;6.534;2023-06-22T14:17:57;24.40;99.90
53802;DHT22;39709;53.334;6.534;2023-06-22T14:20:23;24.30;99.90
53802;DHT22;39709;53.334;6.534;2023-06-22T14:22:48;24.70;99.90
53802;DHT22;39709;53.334;6.534;2023-06-22T14:25:14;24.90;99.90
53802;DHT22;39709;53.334;6.534;2023-06-22T14:27:40;25.40;99.90
53802;DHT22;39709;53.334;6.534;2023-06-22T14:30:06;25.10;99.90
53802;DHT22;39709;53.334;6.534;2023-06-22T14:32:32;24.50;99.90
53802;DHT22;39709;53.334;6.534;2023-06-22T14:34:57;24.00;99.90
53802;DHT22;39709;53.334;6.534;2023-06-22T14:37:23;24.30;99.90
53802;DHT22;39709;53.334;6.534;2023-06-22T14:39:49;24.40;99.90
53802;DHT22;39709;53.334;6.534;2023-06-22T14:42:14;23.90;99.90
53802;DHT22;39709;53.334;6.534;2023-06-22T14:44:40;23.40;99.90
53802;DHT22;39709;53.334;6.534;2023-06-22T14:47:06;23.60;99.90
53802;DHT22;39709;53.334;6.534;2023-06-22T14:49:32;23.50;99.90
53802;DHT22;39709;53.334;6.534;2023-06-22T14:51:57;23.50;99.90
53802;DHT22;39709;53.334;6.534;2023-06-22T14:54:23;24.00;99.90
53802;DHT22;39709;53.334;6.534;2023-06-22T14:56:50;24.30;99.90
53802;DHT22;39709;53.334;6.534;2023-06-22T14:59:15;24.20;99.90
53802;DHT22;39709;53.334;6.534;2023-06-22T15:01:41;24.10;99.90
53802;DHT22;39709;53.334;6.534;2023-06-22T15:04:07;24.80;99.90
53802;DHT22;39709;53.334;6.534;2023-06-22T15:06:32;24.70;99.90
53802;DHT22;39709;53.334;6.534;2023-06-22T15:08:58;24.60;99.90
53802;DHT22;39709;53.334;6.534;2023-06-22T15:11:24;24.70;99.90
53802;DHT22;39709;53.334;6.534;2023-06-22T15:13:49;24.50;99.90
53802;DHT22;39709;53.334;6.534;2023-06-22T15:16:15;24.60;99.90
53802;DHT22;39709;53.334;6.534;2023-06-22T15:18:41;24.80;99.90
53802;DHT22;39709;53.334;6.534;2023-06-22T15:21:07;24.30;99.90
53802;DHT22;39709;53.334;6.534;2023-06-22T15:23:33;23.90;99.90
53802;DHT22;39709;53.334;6.534;2023-06-22T15:26:03;24.00;99.90
53802;DHT22;39709;53.334;6.534;2023-06-22T15:28:32;23.80;99.90
53802;DHT22;39709;53.334;6.534;2023-06-22T15:31:00;23.10;99.90
53802;DHT22;39709;53.334;6.534;2023-06-22T15:33:26;23.50;99.90
53802;DHT22;39709;53.334;6.534;2023-06-22T15:35:51;23.50;99.90
53802;DHT22;39709;53.334;6.534;2023-06-22T15:38:21;23.70;99.90